sensor_id;sensor_type;location;lat;lon;timestamp;noise_LAeq;noise_LA_min;noise_LA_max;noise_LA01;noise_LA95
67304;Laerm;57660;51.436;5.978;2023-05-20T00:00:08;48.67;47.05;50.73;;
67304;Laerm;57660;51.436;5.978;2023-05-20T00:00:27;49.07;47.45;51.42;;
67304;Laerm;57660;51.436;5.978;2023-05-20T00:00:39;48.91;47.23;50.84;;
67304;Laerm;57660;51.436;5.978;2023-05-20T00:00:50;48.92;46.86;50.94;;
67304;Laerm;57660;51.436;5.978;2023-05-20T00:01:02;47.94;46.96;48.93;;
67304;Laerm;57660;51.436;5.978;2023-05-20T00:01:12;47.98;47.05;49.06;;
67304;Laerm;57660;51.436;5.978;2023-05-20T00:01:23;47.98;46.71;50.30;;
67304;Laerm;57660;51.436;5.978;2023-05-20T00:01:36;47.89;46.82;48.87;;
67304;Laerm;57660;51.436;5.978;2023-05-20T00:01:46;47.87;46.96;48.67;;
67304;Laerm;57660;51.436;5.978;2023-05-20T00:01:57;49.22;47.06;50.88;;
67304;Laerm;57660;51.436;5.978;2023-05-20T00:02:09;48.97;47.45;50.48;;
67304;Laerm;57660;51.436;5.978;2023-05-20T00:02:20;48.67;47.28;50.34;;
67304;Laerm;57660;51.436;5.978;2023-05-20T00:02:30;49.24;47.44;50.81;;
67304;Laerm;57660;51.436;5.978;2023-05-20T00:02:49;49.38;47.49;50.64;;
67304;Laerm;57660;51.436;5.978;2023-05-20T00:02:59;49.09;47.38;50.71;;
67304;Laerm;57660;51.436;5.978;2023-05-20T00:03:10;49.36;47.81;51.03;;
67304;Laerm;57660;51.436;5.978;2023-05-20T00:03:20;49.37;47.72;51.48;;
67304;Laerm;57660;51.436;5.978;2023-05-20T00:03:31;49.79;48.07;51.78;;
67304;Laerm;57660;51.436;5.978;2023-05-20T00:03:41;49.55;47.51;51.15;;
67304;Laerm;57660;51.436;5.978;2023-05-20T00:03:54;49.12;47.33;50.86;;
67304;Laerm;57660;51.436;5.978;2023-05-20T00:04:06;49.10;47.33;50.76;;
67304;Laerm;57660;51.436;5.978;2023-05-20T00:04:16;49.42;47.71;50.93;;
67304;Laerm;57660;51.436;5.978;2023-05-20T00:04:26;49.38;47.46;50.97;;
67304;Laerm;57660;51.436;5.978;2023-05-20T00:04:37;49.32;47.79;50.99;;
67304;Laerm;57660;51.436;5.978;2023-05-20T00:04:47;49.61;48.17;50.71;;
67304;Laerm;57660;51.436;5.978;2023-05-20T00:04:57;49.55;47.40;51.14;;
67304;Laerm;57660;51.436;5.978;2023-05-20T00:05:11;49.65;48.24;51.19;;
67304;Laerm;57660;51.436;5.978;2023-05-20T00:05:22;49.40;47.56;51.23;;
67304;Laerm;57660;51.436;5.978;2023-05-20T00:05:32;49.23;46.66;50.94;;
67304;Laerm;57660;51.436;5.978;2023-05-20T00:05:42;49.33;47.21;50.89;;
67304;Laerm;57660;51.436;5.978;2023-05-20T00:05:56;49.22;47.23;51.02;;
67304;Laerm;57660;51.436;5.978;2023-05-20T00:06:06;49.01;47.48;50.85;;
67304;Laerm;57660;51.436;5.978;2023-05-20T00:06:16;48.92;47.35;50.65;;
67304;Laerm;57660;51.436;5.978;2023-05-20T00:06:30;48.86;47.10;50.60;;
67304;Laerm;57660;51.436;5.978;2023-05-20T00:06:41;49.14;47.61;50.99;;
67304;Laerm;57660;51.436;5.978;2023-05-20T00:06:51;49.07;47.46;51.29;;
67304;Laerm;57660;51.436;5.978;2023-05-20T00:07:05;49.29;47.68;50.90;;
67304;Laerm;57660;51.436;5.978;2023-05-20T00:07:15;49.40;48.06;50.63;;
67304;Laerm;57660;51.436;5.978;2023-05-20T00:07:26;49.21;47.67;51.32;;
67304;Laerm;57660;51.436;5.978;2023-05-20T00:07:36;49.35;47.92;50.92;;
67304;Laerm;57660;51.436;5.978;2023-05-20T00:07:46;49.42;47.62;51.04;;
67304;Laerm;57660;51.436;5.978;2023-05-20T00:07:57;48.95;47.46;50.48;;
67304;Laerm;57660;51.436;5.978;2023-05-20T00:08:08;49.31;47.83;51.30;;
67304;Laerm;57660;51.436;5.978;2023-05-20T00:08:20;49.26;47.43;50.82;;
67304;Laerm;57660;51.436;5.978;2023-05-20T00:08:30;48.92;47.40;50.65;;
67304;Laerm;57660;51.436;5.978;2023-05-20T00:08:40;48.52;47.09;50.44;;
67304;Laerm;57660;51.436;5.978;2023-05-20T00:08:51;49.21;47.13;50.72;;
67304;Laerm;57660;51.436;5.978;2023-05-20T00:09:01;49.10;47.02;50.92;;
67304;Laerm;57660;51.436;5.978;2023-05-20T00:09:12;48.71;47.28;50.74;;
67304;Laerm;57660;51.436;5.978;2023-05-20T00:09:32;49.28;47.69;50.69;;
67304;Laerm;57660;51.436;5.978;2023-05-20T00:09:42;49.32;47.58;50.98;;
67304;Laerm;57660;51.436;5.978;2023-05-20T00:09:52;49.23;47.75;50.88;;
67304;Laerm;57660;51.436;5.978;2023-05-20T00:10:05;48.69;47.15;50.54;;
67304;Laerm;57660;51.436;5.978;2023-05-20T00:10:16;47.99;47.07;49.64;;
67304;Laerm;57660;51.436;5.978;2023-05-20T00:10:26;47.88;46.64;50.22;;
67304;Laerm;57660;51.436;5.978;2023-05-20T00:10:43;47.93;46.98;50.48;;
67304;Laerm;57660;51.436;5.978;2023-05-20T00:10:53;48.34;46.80;50.02;;
67304;Laerm;57660;51.436;5.978;2023-05-20T00:11:04;48.69;47.69;49.63;;
67304;Laerm;57660;51.436;5.978;2023-05-20T00:11:17;48.78;47.84;50.10;;
67304;Laerm;57660;51.436;5.978;2023-05-20T00:11:30;48.64;47.40;49.62;;
67304;Laerm;57660;51.436;5.978;2023-05-20T00:11:40;48.15;46.95;49.60;;
67304;Laerm;57660;51.436;5.978;2023-05-20T00:11:54;47.81;47.01;48.71;;
67304;Laerm;57660;51.436;5.978;2023-05-20T00:12:05;47.84;46.86;48.88;;
67304;Laerm;57660;51.436;5.978;2023-05-20T00:12:16;47.76;46.87;48.86;;
67304;Laerm;57660;51.436;5.978;2023-05-20T00:12:26;47.90;46.64;49.14;;
67304;Laerm;57660;51.436;5.978;2023-05-20T00:12:37;47.84;46.86;48.87;;
67304;Laerm;57660;51.436;5.978;2023-05-20T00:12:48;47.84;46.94;49.01;;
67304;Laerm;57660;51.436;5.978;2023-05-20T00:12:58;47.86;46.80;48.96;;
67304;Laerm;57660;51.436;5.978;2023-05-20T00:13:10;47.83;46.70;48.95;;
67304;Laerm;57660;51.436;5.978;2023-05-20T00:13:20;47.83;46.81;49.97;;
67304;Laerm;57660;51.436;5.978;2023-05-20T00:13:33;47.79;46.69;48.78;;
67304;Laerm;57660;51.436;5.978;2023-05-20T00:13:50;47.80;46.73;48.94;;
67304;Laerm;57660;51.436;5.978;2023-05-20T00:14:01;47.80;46.61;48.91;;
67304;Laerm;57660;51.436;5.978;2023-05-20T00:14:11;47.92;46.83;50.77;;
67304;Laerm;57660;51.436;5.978;2023-05-20T00:14:22;47.81;46.87;48.66;;
67304;Laerm;57660;51.436;5.978;2023-05-20T00:14:32;48.47;47.12;49.76;;
67304;Laerm;57660;51.436;5.978;2023-05-20T00:14:42;48.18;46.85;49.56;;
67304;Laerm;57660;51.436;5.978;2023-05-20T00:14:53;47.83;46.89;48.96;;
67304;Laerm;57660;51.436;5.978;2023-05-20T00:15:15;47.96;46.66;48.90;;
67304;Laerm;57660;51.436;5.978;2023-05-20T00:15:26;47.93;47.17;49.10;;
67304;Laerm;57660;51.436;5.978;2023-05-20T00:15:39;47.83;47.01;48.95;;
67304;Laerm;57660;51.436;5.978;2023-05-20T00:15:50;47.88;46.82;49.27;;
67304;Laerm;57660;51.436;5.978;2023-05-20T00:16:01;47.95;46.91;49.21;;
67304;Laerm;57660;51.436;5.978;2023-05-20T00:16:14;48.61;47.67;49.64;;
67304;Laerm;57660;51.436;5.978;2023-05-20T00:16:24;48.48;46.99;49.78;;
67304;Laerm;57660;51.436;5.978;2023-05-20T00:16:35;47.83;46.95;48.60;;
67304;Laerm;57660;51.436;5.978;2023-05-20T00:16:45;47.84;46.92;48.77;;
67304;Laerm;57660;51.436;5.978;2023-05-20T00:16:58;48.09;47.27;49.19;;
67304;Laerm;57660;51.436;5.978;2023-05-20T00:17:09;48.05;47.13;49.22;;
67304;Laerm;57660;51.436;5.978;2023-05-20T00:17:19;48.04;46.85;49.18;;
67304;Laerm;57660;51.436;5.978;2023-05-20T00:17:30;48.14;47.08;49.34;;
67304;Laerm;57660;51.436;5.978;2023-05-20T00:17:45;48.08;46.71;51.21;;
67304;Laerm;57660;51.436;5.978;2023-05-20T00:17:55;48.02;47.23;49.30;;
67304;Laerm;57660;51.436;5.978;2023-05-20T00:18:06;47.98;47.08;49.24;;
67304;Laerm;57660;51.436;5.978;2023-05-20T00:18:16;47.97;46.95;48.77;;
67304;Laerm;57660;51.436;5.978;2023-05-20T00:18:27;48.09;47.06;49.11;;
67304;Laerm;57660;51.436;5.978;2023-05-20T00:18:43;48.15;46.90;49.73;;
67304;Laerm;57660;51.436;5.978;2023-05-20T00:18:53;48.06;46.76;49.47;;
67304;Laerm;57660;51.436;5.978;2023-05-20T00:19:05;48.14;46.97;49.59;;
67304;Laerm;57660;51.436;5.978;2023-05-20T00:19:16;48.41;47.23;49.58;;
67304;Laerm;57660;51.436;5.978;2023-05-20T00:19:26;47.87;46.76;48.66;;
67304;Laerm;57660;51.436;5.978;2023-05-20T00:19:37;48.42;47.40;50.87;;
67304;Laerm;57660;51.436;5.978;2023-05-20T00:19:47;48.98;47.54;50.51;;
67304;Laerm;57660;51.436;5.978;2023-05-20T00:20:14;48.90;47.30;50.75;;
67304;Laerm;57660;51.436;5.978;2023-05-20T00:20:27;49.06;47.58;50.56;;
67304;Laerm;57660;51.436;5.978;2023-05-20T00:20:41;48.77;47.41;50.45;;
67304;Laerm;57660;51.436;5.978;2023-05-20T00:20:51;48.52;46.97;50.01;;
67304;Laerm;57660;51.436;5.978;2023-05-20T00:21:06;48.43;47.19;49.91;;
67304;Laerm;57660;51.436;5.978;2023-05-20T00:21:16;48.66;47.07;50.26;;
67304;Laerm;57660;51.436;5.978;2023-05-20T00:21:29;48.81;47.03;50.28;;
67304;Laerm;57660;51.436;5.978;2023-05-20T00:21:42;48.76;47.26;50.69;;
67304;Laerm;57660;51.436;5.978;2023-05-20T00:21:56;49.09;47.45;50.74;;
67304;Laerm;57660;51.436;5.978;2023-05-20T00:22:10;48.45;47.00;50.19;;
67304;Laerm;57660;51.436;5.978;2023-05-20T00:22:26;49.00;47.42;50.19;;
67304;Laerm;57660;51.436;5.978;2023-05-20T00:22:36;49.37;47.76;50.95;;
67304;Laerm;57660;51.436;5.978;2023-05-20T00:22:47;48.64;47.11;50.70;;
67304;Laerm;57660;51.436;5.978;2023-05-20T00:23:01;47.92;46.83;51.09;;
67304;Laerm;57660;51.436;5.978;2023-05-20T00:23:14;47.84;46.86;49.44;;
67304;Laerm;57660;51.436;5.978;2023-05-20T00:23:24;47.91;46.88;52.09;;
67304;Laerm;57660;51.436;5.978;2023-05-20T00:23:35;47.85;46.86;48.86;;
67304;Laerm;57660;51.436;5.978;2023-05-20T00:23:45;47.89;46.97;49.02;;
67304;Laerm;57660;51.436;5.978;2023-05-20T00:23:56;47.90;46.74;49.10;;
67304;Laerm;57660;51.436;5.978;2023-05-20T00:24:10;47.84;46.84;49.02;;
67304;Laerm;57660;51.436;5.978;2023-05-20T00:24:21;47.90;46.95;48.94;;
67304;Laerm;57660;51.436;5.978;2023-05-20T00:24:31;47.84;46.90;48.72;;
67304;Laerm;57660;51.436;5.978;2023-05-20T00:24:42;47.85;46.92;48.82;;
67304;Laerm;57660;51.436;5.978;2023-05-20T00:24:52;47.82;46.73;48.80;;
67304;Laerm;57660;51.436;5.978;2023-05-20T00:25:03;47.85;46.75;48.88;;
67304;Laerm;57660;51.436;5.978;2023-05-20T00:25:13;47.88;46.72;48.87;;
67304;Laerm;57660;51.436;5.978;2023-05-20T00:25:23;47.85;46.90;48.98;;
67304;Laerm;57660;51.436;5.978;2023-05-20T00:25:52;47.81;46.63;48.71;;
67304;Laerm;57660;51.436;5.978;2023-05-20T00:26:02;47.85;46.90;48.82;;
67304;Laerm;57660;51.436;5.978;2023-05-20T00:26:13;47.92;46.76;49.08;;
67304;Laerm;57660;51.436;5.978;2023-05-20T00:26:23;47.94;46.95;48.99;;
67304;Laerm;57660;51.436;5.978;2023-05-20T00:26:34;47.85;47.09;48.98;;
67304;Laerm;57660;51.436;5.978;2023-05-20T00:26:44;47.80;46.74;48.73;;
67304;Laerm;57660;51.436;5.978;2023-05-20T00:26:54;47.88;47.11;49.00;;
67304;Laerm;57660;51.436;5.978;2023-05-20T00:27:05;47.86;46.89;48.95;;
67304;Laerm;57660;51.436;5.978;2023-05-20T00:27:18;47.88;46.84;50.69;;
67304;Laerm;57660;51.436;5.978;2023-05-20T00:27:31;47.82;46.84;48.89;;
67304;Laerm;57660;51.436;5.978;2023-05-20T00:27:42;47.81;46.73;48.88;;
67304;Laerm;57660;51.436;5.978;2023-05-20T00:27:52;47.89;46.92;48.89;;
67304;Laerm;57660;51.436;5.978;2023-05-20T00:28:02;47.93;46.89;49.44;;
67304;Laerm;57660;51.436;5.978;2023-05-20T00:28:13;49.01;47.53;50.21;;
67304;Laerm;57660;51.436;5.978;2023-05-20T00:28:23;48.97;47.40;50.88;;
67304;Laerm;57660;51.436;5.978;2023-05-20T00:28:33;48.61;47.32;49.93;;
67304;Laerm;57660;51.436;5.978;2023-05-20T00:28:44;48.54;47.18;50.40;;
67304;Laerm;57660;51.436;5.978;2023-05-20T00:28:55;48.59;47.30;50.69;;
67304;Laerm;57660;51.436;5.978;2023-05-20T00:29:08;49.08;47.40;50.66;;
67304;Laerm;57660;51.436;5.978;2023-05-20T00:29:19;49.78;47.39;51.25;;
67304;Laerm;57660;51.436;5.978;2023-05-20T00:29:33;49.72;48.09;51.20;;
67304;Laerm;57660;51.436;5.978;2023-05-20T00:29:43;49.56;47.68;51.63;;
67304;Laerm;57660;51.436;5.978;2023-05-20T00:29:57;51.81;47.56;56.31;;
67304;Laerm;57660;51.436;5.978;2023-05-20T00:30:07;49.32;47.53;51.01;;
67304;Laerm;57660;51.436;5.978;2023-05-20T00:30:18;49.55;47.42;51.07;;
67304;Laerm;57660;51.436;5.978;2023-05-20T00:30:31;49.53;47.62;51.15;;
67304;Laerm;57660;51.436;5.978;2023-05-20T00:30:42;49.64;47.91;50.90;;
67304;Laerm;57660;51.436;5.978;2023-05-20T00:30:53;49.45;47.98;51.05;;
67304;Laerm;57660;51.436;5.978;2023-05-20T00:31:03;48.63;47.18;50.28;;
67304;Laerm;57660;51.436;5.978;2023-05-20T00:31:14;48.67;47.49;50.14;;
67304;Laerm;57660;51.436;5.978;2023-05-20T00:31:34;48.70;47.33;50.00;;
67304;Laerm;57660;51.436;5.978;2023-05-20T00:31:44;48.46;47.30;50.16;;
67304;Laerm;57660;51.436;5.978;2023-05-20T00:31:55;48.38;47.16;49.97;;
67304;Laerm;57660;51.436;5.978;2023-05-20T00:32:08;48.40;47.17;50.07;;
67304;Laerm;57660;51.436;5.978;2023-05-20T00:32:18;48.43;47.26;49.95;;
67304;Laerm;57660;51.436;5.978;2023-05-20T00:32:32;48.23;46.95;50.24;;
67304;Laerm;57660;51.436;5.978;2023-05-20T00:32:47;48.09;46.86;49.97;;
67304;Laerm;57660;51.436;5.978;2023-05-20T00:32:57;47.97;47.04;49.06;;
67304;Laerm;57660;51.436;5.978;2023-05-20T00:33:07;47.92;46.77;49.15;;
67304;Laerm;57660;51.436;5.978;2023-05-20T00:33:24;47.91;47.04;48.93;;
67304;Laerm;57660;51.436;5.978;2023-05-20T00:33:34;47.87;46.60;50.44;;
67304;Laerm;57660;51.436;5.978;2023-05-20T00:33:45;47.84;46.99;48.75;;
67304;Laerm;57660;51.436;5.978;2023-05-20T00:33:57;47.85;46.85;48.80;;
67304;Laerm;57660;51.436;5.978;2023-05-20T00:34:07;47.91;46.99;49.04;;
67304;Laerm;57660;51.436;5.978;2023-05-20T00:34:17;48.13;47.01;50.30;;
67304;Laerm;57660;51.436;5.978;2023-05-20T00:34:27;48.84;47.53;50.29;;
67304;Laerm;57660;51.436;5.978;2023-05-20T00:34:38;48.54;47.34;49.80;;
67304;Laerm;57660;51.436;5.978;2023-05-20T00:34:55;49.00;47.73;50.69;;
67304;Laerm;57660;51.436;5.978;2023-05-20T00:35:06;48.65;47.24;50.15;;
67304;Laerm;57660;51.436;5.978;2023-05-20T00:35:19;48.60;47.36;50.13;;
67304;Laerm;57660;51.436;5.978;2023-05-20T00:35:30;49.05;47.44;50.77;;
67304;Laerm;57660;51.436;5.978;2023-05-20T00:35:57;48.75;47.12;50.86;;
67304;Laerm;57660;51.436;5.978;2023-05-20T00:36:17;48.25;47.07;50.36;;
67304;Laerm;57660;51.436;5.978;2023-05-20T00:36:27;48.89;47.11;50.66;;
67304;Laerm;57660;51.436;5.978;2023-05-20T00:36:37;48.61;47.36;50.43;;
67304;Laerm;57660;51.436;5.978;2023-05-20T00:36:50;48.60;47.07;49.93;;
67304;Laerm;57660;51.436;5.978;2023-05-20T00:37:01;48.75;47.44;50.12;;
67304;Laerm;57660;51.436;5.978;2023-05-20T00:37:11;49.23;47.49;50.57;;
67304;Laerm;57660;51.436;5.978;2023-05-20T00:37:22;48.70;47.12;50.59;;
67304;Laerm;57660;51.436;5.978;2023-05-20T00:37:32;47.85;47.12;48.64;;
67304;Laerm;57660;51.436;5.978;2023-05-20T00:37:42;47.86;46.95;48.62;;
67304;Laerm;57660;51.436;5.978;2023-05-20T00:38:02;48.29;46.66;50.90;;
67304;Laerm;57660;51.436;5.978;2023-05-20T00:38:12;49.06;47.48;50.94;;
67304;Laerm;57660;51.436;5.978;2023-05-20T00:38:23;48.87;47.36;50.75;;
67304;Laerm;57660;51.436;5.978;2023-05-20T00:38:33;48.52;47.32;50.16;;
67304;Laerm;57660;51.436;5.978;2023-05-20T00:38:46;48.34;46.87;49.84;;
67304;Laerm;57660;51.436;5.978;2023-05-20T00:38:57;48.69;47.15;50.35;;
67304;Laerm;57660;51.436;5.978;2023-05-20T00:39:07;48.39;47.27;50.30;;
67304;Laerm;57660;51.436;5.978;2023-05-20T00:39:17;49.14;47.46;50.69;;
67304;Laerm;57660;51.436;5.978;2023-05-20T00:39:31;48.97;47.56;50.70;;
67304;Laerm;57660;51.436;5.978;2023-05-20T00:39:41;48.79;46.94;50.48;;
67304;Laerm;57660;51.436;5.978;2023-05-20T00:39:51;48.49;47.15;49.67;;
67304;Laerm;57660;51.436;5.978;2023-05-20T00:40:05;48.85;47.02;50.24;;
67304;Laerm;57660;51.436;5.978;2023-05-20T00:40:16;49.09;47.58;50.66;;
67304;Laerm;57660;51.436;5.978;2023-05-20T00:40:26;48.60;47.27;50.37;;
67304;Laerm;57660;51.436;5.978;2023-05-20T00:40:40;48.49;47.21;49.68;;
67304;Laerm;57660;51.436;5.978;2023-05-20T00:40:50;48.28;47.13;49.62;;
67304;Laerm;57660;51.436;5.978;2023-05-20T00:41:04;48.75;47.20;50.76;;
67304;Laerm;57660;51.436;5.978;2023-05-20T00:41:14;48.91;47.43;50.35;;
67304;Laerm;57660;51.436;5.978;2023-05-20T00:41:24;49.05;47.37;50.66;;
67304;Laerm;57660;51.436;5.978;2023-05-20T00:41:35;48.62;47.20;50.01;;
67304;Laerm;57660;51.436;5.978;2023-05-20T00:41:45;48.91;47.02;50.91;;
67304;Laerm;57660;51.436;5.978;2023-05-20T00:42:01;49.09;47.18;50.78;;
67304;Laerm;57660;51.436;5.978;2023-05-20T00:42:18;49.26;47.39;51.02;;
67304;Laerm;57660;51.436;5.978;2023-05-20T00:42:34;48.95;47.40;50.81;;
67304;Laerm;57660;51.436;5.978;2023-05-20T00:42:44;48.94;47.50;50.67;;
67304;Laerm;57660;51.436;5.978;2023-05-20T00:43:04;49.07;47.40;50.51;;
67304;Laerm;57660;51.436;5.978;2023-05-20T00:43:14;49.43;47.98;51.84;;
67304;Laerm;57660;51.436;5.978;2023-05-20T00:43:25;49.56;47.85;51.45;;
67304;Laerm;57660;51.436;5.978;2023-05-20T00:43:38;49.53;48.01;51.11;;
67304;Laerm;57660;51.436;5.978;2023-05-20T00:43:52;49.36;47.54;51.02;;
67304;Laerm;57660;51.436;5.978;2023-05-20T00:44:32;49.34;47.03;51.23;;
67304;Laerm;57660;51.436;5.978;2023-05-20T00:44:46;48.13;46.86;50.86;;
67304;Laerm;57660;51.436;5.978;2023-05-20T00:44:56;47.93;46.99;48.88;;
67304;Laerm;57660;51.436;5.978;2023-05-20T00:45:07;47.86;46.99;48.81;;
67304;Laerm;57660;51.436;5.978;2023-05-20T00:45:17;47.83;46.88;49.11;;
67304;Laerm;57660;51.436;5.978;2023-05-20T00:45:28;47.87;46.91;49.17;;
67304;Laerm;57660;51.436;5.978;2023-05-20T00:45:38;47.92;46.73;49.17;;
67304;Laerm;57660;51.436;5.978;2023-05-20T00:46:04;47.90;47.12;48.80;;
67304;Laerm;57660;51.436;5.978;2023-05-20T00:46:14;47.87;46.96;48.90;;
67304;Laerm;57660;51.436;5.978;2023-05-20T00:46:25;47.96;46.92;49.01;;
67304;Laerm;57660;51.436;5.978;2023-05-20T00:46:41;47.89;46.93;48.98;;
67304;Laerm;57660;51.436;5.978;2023-05-20T00:46:52;47.95;47.11;48.83;;
67304;Laerm;57660;51.436;5.978;2023-05-20T00:47:06;47.88;46.90;48.82;;
67304;Laerm;57660;51.436;5.978;2023-05-20T00:47:20;47.95;46.95;49.27;;
67304;Laerm;57660;51.436;5.978;2023-05-20T00:47:41;47.95;46.82;49.04;;
67304;Laerm;57660;51.436;5.978;2023-05-20T00:47:52;47.87;46.78;49.20;;
67304;Laerm;57660;51.436;5.978;2023-05-20T00:48:13;47.97;46.75;50.17;;
67304;Laerm;57660;51.436;5.978;2023-05-20T00:48:24;47.94;46.98;49.20;;
67304;Laerm;57660;51.436;5.978;2023-05-20T00:48:38;47.94;47.09;48.88;;
67304;Laerm;57660;51.436;5.978;2023-05-20T00:49:02;47.95;46.77;49.28;;
67304;Laerm;57660;51.436;5.978;2023-05-20T00:49:12;47.95;46.98;48.89;;
67304;Laerm;57660;51.436;5.978;2023-05-20T00:49:23;47.93;46.79;48.98;;
67304;Laerm;57660;51.436;5.978;2023-05-20T00:49:36;47.92;46.81;49.07;;
67304;Laerm;57660;51.436;5.978;2023-05-20T00:49:48;47.89;47.03;48.86;;
67304;Laerm;57660;51.436;5.978;2023-05-20T00:49:59;47.89;46.86;48.95;;
67304;Laerm;57660;51.436;5.978;2023-05-20T00:50:09;47.87;46.77;48.81;;
67304;Laerm;57660;51.436;5.978;2023-05-20T00:50:20;47.86;46.84;49.02;;
67304;Laerm;57660;51.436;5.978;2023-05-20T00:50:33;47.82;46.85;48.79;;
67304;Laerm;57660;51.436;5.978;2023-05-20T00:50:45;47.89;47.00;49.00;;
67304;Laerm;57660;51.436;5.978;2023-05-20T00:50:59;47.90;46.66;49.09;;
67304;Laerm;57660;51.436;5.978;2023-05-20T00:51:12;47.88;46.81;49.16;;
67304;Laerm;57660;51.436;5.978;2023-05-20T00:51:22;47.88;46.93;49.47;;
67304;Laerm;57660;51.436;5.978;2023-05-20T00:51:32;47.92;46.65;48.76;;
67304;Laerm;57660;51.436;5.978;2023-05-20T00:51:49;47.94;46.98;48.85;;
67304;Laerm;57660;51.436;5.978;2023-05-20T00:51:59;47.92;46.83;48.86;;
67304;Laerm;57660;51.436;5.978;2023-05-20T00:52:12;47.89;46.99;48.88;;
67304;Laerm;57660;51.436;5.978;2023-05-20T00:52:23;47.85;46.88;49.05;;
67304;Laerm;57660;51.436;5.978;2023-05-20T00:52:34;47.82;46.73;49.46;;
67304;Laerm;57660;51.436;5.978;2023-05-20T00:52:46;47.90;47.01;51.23;;
67304;Laerm;57660;51.436;5.978;2023-05-20T00:52:57;47.86;46.95;50.56;;
67304;Laerm;57660;51.436;5.978;2023-05-20T00:53:08;47.94;47.00;48.93;;
67304;Laerm;57660;51.436;5.978;2023-05-20T00:53:21;47.94;47.11;49.09;;
67304;Laerm;57660;51.436;5.978;2023-05-20T00:53:32;47.88;46.67;48.86;;
67304;Laerm;57660;51.436;5.978;2023-05-20T00:53:43;47.84;46.62;48.98;;
67304;Laerm;57660;51.436;5.978;2023-05-20T00:53:54;47.90;47.06;50.45;;
67304;Laerm;57660;51.436;5.978;2023-05-20T00:54:07;47.88;47.02;50.29;;
67304;Laerm;57660;51.436;5.978;2023-05-20T00:54:17;47.84;46.99;48.82;;
67304;Laerm;57660;51.436;5.978;2023-05-20T00:54:28;47.85;46.77;49.36;;
67304;Laerm;57660;51.436;5.978;2023-05-20T00:54:41;47.88;46.86;49.07;;
67304;Laerm;57660;51.436;5.978;2023-05-20T00:54:52;47.89;46.76;49.09;;
67304;Laerm;57660;51.436;5.978;2023-05-20T00:55:05;47.93;47.05;48.95;;
67304;Laerm;57660;51.436;5.978;2023-05-20T00:55:16;47.92;46.85;48.99;;
67304;Laerm;57660;51.436;5.978;2023-05-20T00:55:26;47.86;47.03;51.74;;
67304;Laerm;57660;51.436;5.978;2023-05-20T00:55:39;47.98;47.04;49.05;;
67304;Laerm;57660;51.436;5.978;2023-05-20T00:55:53;47.86;46.80;48.77;;
67304;Laerm;57660;51.436;5.978;2023-05-20T00:56:04;47.93;46.98;48.86;;
67304;Laerm;57660;51.436;5.978;2023-05-20T00:56:18;47.93;47.08;48.80;;
67304;Laerm;57660;51.436;5.978;2023-05-20T00:56:30;47.94;46.94;49.13;;
67304;Laerm;57660;51.436;5.978;2023-05-20T00:56:40;47.94;47.12;48.88;;
67304;Laerm;57660;51.436;5.978;2023-05-20T00:57:12;47.89;46.93;49.14;;
67304;Laerm;57660;51.436;5.978;2023-05-20T00:57:22;48.01;46.91;49.31;;
67304;Laerm;57660;51.436;5.978;2023-05-20T00:57:33;48.27;46.98;49.59;;
67304;Laerm;57660;51.436;5.978;2023-05-20T00:57:43;48.42;47.18;49.35;;
67304;Laerm;57660;51.436;5.978;2023-05-20T00:57:54;48.33;47.12;49.77;;
67304;Laerm;57660;51.436;5.978;2023-05-20T00:58:04;48.52;47.21;49.93;;
67304;Laerm;57660;51.436;5.978;2023-05-20T00:58:15;48.25;47.08;49.74;;
67304;Laerm;57660;51.436;5.978;2023-05-20T00:58:25;48.09;46.87;49.09;;
67304;Laerm;57660;51.436;5.978;2023-05-20T00:58:35;48.28;46.82;49.39;;
67304;Laerm;57660;51.436;5.978;2023-05-20T00:58:49;48.26;46.89;49.43;;
67304;Laerm;57660;51.436;5.978;2023-05-20T00:59:00;48.10;47.04;49.30;;
67304;Laerm;57660;51.436;5.978;2023-05-20T00:59:10;48.18;47.09;49.54;;
67304;Laerm;57660;51.436;5.978;2023-05-20T00:59:24;48.15;47.08;49.27;;
67304;Laerm;57660;51.436;5.978;2023-05-20T00:59:35;48.37;47.14;49.61;;
67304;Laerm;57660;51.436;5.978;2023-05-20T00:59:48;48.44;47.26;50.31;;
67304;Laerm;57660;51.436;5.978;2023-05-20T00:59:59;49.05;47.29;53.41;;
67304;Laerm;57660;51.436;5.978;2023-05-20T01:00:09;48.21;47.36;49.65;;
67304;Laerm;57660;51.436;5.978;2023-05-20T01:00:20;48.07;47.00;49.42;;
67304;Laerm;57660;51.436;5.978;2023-05-20T01:00:33;48.52;47.30;49.76;;
67304;Laerm;57660;51.436;5.978;2023-05-20T01:00:44;48.44;47.10;49.80;;
67304;Laerm;57660;51.436;5.978;2023-05-20T01:00:54;48.32;47.44;49.36;;
67304;Laerm;57660;51.436;5.978;2023-05-20T01:01:14;48.46;47.19;50.00;;
67304;Laerm;57660;51.436;5.978;2023-05-20T01:01:24;48.68;47.54;50.87;;
67304;Laerm;57660;51.436;5.978;2023-05-20T01:01:36;50.82;46.99;54.30;;
67304;Laerm;57660;51.436;5.978;2023-05-20T01:01:49;49.92;47.20;54.85;;
67304;Laerm;57660;51.436;5.978;2023-05-20T01:02:00;48.36;47.08;49.61;;
67304;Laerm;57660;51.436;5.978;2023-05-20T01:02:11;47.86;46.99;48.81;;
67304;Laerm;57660;51.436;5.978;2023-05-20T01:02:24;47.90;46.95;49.53;;
67304;Laerm;57660;51.436;5.978;2023-05-20T01:02:34;48.33;46.80;49.60;;
67304;Laerm;57660;51.436;5.978;2023-05-20T01:02:45;48.65;47.32;50.72;;
67304;Laerm;57660;51.436;5.978;2023-05-20T01:03:04;48.62;47.35;50.17;;
67304;Laerm;57660;51.436;5.978;2023-05-20T01:03:14;48.59;47.24;50.12;;
67304;Laerm;57660;51.436;5.978;2023-05-20T01:03:28;48.78;47.21;50.06;;
67304;Laerm;57660;51.436;5.978;2023-05-20T01:03:38;48.65;47.46;50.26;;
67304;Laerm;57660;51.436;5.978;2023-05-20T01:03:49;48.29;47.13;49.82;;
67304;Laerm;57660;51.436;5.978;2023-05-20T01:04:00;48.71;47.50;49.94;;
67304;Laerm;57660;51.436;5.978;2023-05-20T01:04:14;48.73;47.17;49.88;;
67304;Laerm;57660;51.436;5.978;2023-05-20T01:04:24;48.78;47.50;49.76;;
67304;Laerm;57660;51.436;5.978;2023-05-20T01:04:35;48.67;47.04;50.22;;
67304;Laerm;57660;51.436;5.978;2023-05-20T01:04:46;48.50;47.49;49.75;;
67304;Laerm;57660;51.436;5.978;2023-05-20T01:04:59;48.81;47.60;50.53;;
67304;Laerm;57660;51.436;5.978;2023-05-20T01:05:14;49.13;47.55;50.56;;
67304;Laerm;57660;51.436;5.978;2023-05-20T01:05:25;48.92;47.35;50.17;;
67304;Laerm;57660;51.436;5.978;2023-05-20T01:05:36;48.41;47.11;50.24;;
67304;Laerm;57660;51.436;5.978;2023-05-20T01:05:46;47.88;46.84;48.71;;
67304;Laerm;57660;51.436;5.978;2023-05-20T01:05:57;47.85;46.81;49.41;;
67304;Laerm;57660;51.436;5.978;2023-05-20T01:06:07;48.21;46.81;49.95;;
67304;Laerm;57660;51.436;5.978;2023-05-20T01:06:20;48.95;47.56;50.25;;
67304;Laerm;57660;51.436;5.978;2023-05-20T01:06:30;48.57;47.23;50.12;;
67304;Laerm;57660;51.436;5.978;2023-05-20T01:06:45;48.59;47.36;50.07;;
67304;Laerm;57660;51.436;5.978;2023-05-20T01:07:00;48.58;47.41;49.84;;
67304;Laerm;57660;51.436;5.978;2023-05-20T01:07:12;48.50;47.25;49.69;;
67304;Laerm;57660;51.436;5.978;2023-05-20T01:07:29;48.54;47.21;49.84;;
67304;Laerm;57660;51.436;5.978;2023-05-20T01:07:40;48.57;47.26;49.69;;
67304;Laerm;57660;51.436;5.978;2023-05-20T01:08:03;48.34;47.06;49.85;;
67304;Laerm;57660;51.436;5.978;2023-05-20T01:08:17;48.66;47.47;50.01;;